createdAt,value
2022-08-01T00:00:38.257Z,5.07
2022-08-01T00:03:13.694Z,4.85
2022-08-01T00:05:44.626Z,6.18
2022-08-01T00:08:15.165Z,7.25
2022-08-01T00:10:45.181Z,4.93
2022-08-01T00:13:14.814Z,5.30
2022-08-01T00:15:53.709Z,4.30
2022-08-01T00:18:23.477Z,3.33
2022-08-01T00:20:58.086Z,6.90
2022-08-01T00:23:26.894Z,3.75
2022-08-01T00:25:55.313Z,5.15
2022-08-01T00:28:23.695Z,6.05
2022-08-01T00:30:59.972Z,3.10
2022-08-01T00:33:28.511Z,4.85
2022-08-01T00:36:05.632Z,3.70
2022-08-01T00:38:36.297Z,7.43
2022-08-01T00:41:14.719Z,4.60
2022-08-01T00:43:43.320Z,5.47
2022-08-01T00:46:18.458Z,4.25
2022-08-01T00:48:47.500Z,4.82
2022-08-01T00:51:17.641Z,4.03
2022-08-01T00:53:53.884Z,5.30
2022-08-01T00:56:28.030Z,3.65
2022-08-01T00:59:06.933Z,5.05
2022-08-01T01:01:40.401Z,5.30
2022-08-01T01:04:16.229Z,6.15
2022-08-01T01:06:58.466Z,8.15
2022-08-01T01:09:38.727Z,4.15
2022-08-01T01:12:24.804Z,4.75
2022-08-01T01:15:03.703Z,4.90
2022-08-01T01:17:50.314Z,5.45
2022-08-01T01:20:26.379Z,2.88
2022-08-01T01:23:15.027Z,2.97
2022-08-01T01:26:19.640Z,5.45
2022-08-01T01:29:08.673Z,2.70
2022-08-01T01:31:44.584Z,4.60
2022-08-01T01:34:19.432Z,5.05
2022-08-01T01:36:52.185Z,4.97
2022-08-01T01:39:22.917Z,3.75
2022-08-01T01:41:53.883Z,5.43
2022-08-01T01:44:32.074Z,4.15
2022-08-01T01:47:12.150Z,5.28
2022-08-01T01:49:44.276Z,5.43
2022-08-01T01:52:17.661Z,5.15
2022-08-01T01:54:55.526Z,3.90
2022-08-01T01:57:27.151Z,3.78
2022-08-01T02:00:04.322Z,6.22
2022-08-01T02:02:40.070Z,4.95
2022-08-01T02:05:11.569Z,3.80
2022-08-01T02:07:59.832Z,5.22
2022-08-01T02:10:40.329Z,5.47
2022-08-01T02:13:12.811Z,4.32
2022-08-01T02:16:07.303Z,5.10
2022-08-01T02:18:50.205Z,5.60
2022-08-01T02:21:27.742Z,3.83
2022-08-01T02:24:05.676Z,6.13
2022-08-01T02:26:49.030Z,5.05
2022-08-01T02:29:24.322Z,6.00
2022-08-01T02:32:04.815Z,3.85
2022-08-01T02:34:37.453Z,5.07
2022-08-01T02:37:13.310Z,6.95
2022-08-01T02:39:55.176Z,6.75
2022-08-01T02:42:44.023Z,5.72
2022-08-01T02:45:16.157Z,5.35
2022-08-01T02:47:50.141Z,6.00
2022-08-01T02:50:21.198Z,4.85
2022-08-01T02:52:53.119Z,5.97
2022-08-01T02:55:24.403Z,5.75
2022-08-01T02:58:00.101Z,5.97
2022-08-01T03:00:33.852Z,3.50
2022-08-01T03:03:15.500Z,5.95
2022-08-01T03:05:51.061Z,6.38
2022-08-01T03:08:25.141Z,3.85
2022-08-01T03:10:56.855Z,6.57
2022-08-01T03:13:33.683Z,5.32
2022-08-01T03:16:12.289Z,3.95
2022-08-01T03:18:46.110Z,4.60
2022-08-01T03:21:24.486Z,6.80
2022-08-01T03:23:58.534Z,4.90
2022-08-01T03:26:37.299Z,3.85
2022-08-01T03:29:17.119Z,3.50
2022-08-01T03:31:48.633Z,4.05
2022-08-01T03:34:22.273Z,6.65
2022-08-01T03:37:00.963Z,4.47
2022-08-01T03:39:34.570Z,5.72
2022-08-01T03:42:17.826Z,4.63
2022-08-01T03:44:55.523Z,6.18
2022-08-01T03:47:28.456Z,3.58
2022-08-01T03:50:01.719Z,4.43
2022-08-01T03:52:34.524Z,5.30
2022-08-01T03:55:08.373Z,8.40
2022-08-01T03:57:38.552Z,5.28
2022-08-01T04:00:12.352Z,5.05
2022-08-01T04:02:41.488Z,4.55
2022-08-01T04:05:14.414Z,5.35
2022-08-01T04:07:57.114Z,3.97
2022-08-01T04:10:28.388Z,6.90
2022-08-01T04:12:59.058Z,7.85
2022-08-01T04:15:28.656Z,5.13
2022-08-01T04:18:03.277Z,4.72
2022-08-01T04:20:34.096Z,6.38
2022-08-01T04:23:06.379Z,5.05
2022-08-01T04:25:37.527Z,5.00
2022-08-01T04:28:09.272Z,6.32
2022-08-01T04:30:40.408Z,6.13
2022-08-01T04:33:19.478Z,6.10
2022-08-01T04:36:03.653Z,7.18
2022-08-01T04:38:40.005Z,5.82
2022-08-01T04:41:12.747Z,4.70
2022-08-01T04:43:48.072Z,4.97
2022-08-01T04:46:25.645Z,3.97
2022-08-01T04:48:58.041Z,5.93
2022-08-01T04:51:33.525Z,6.35
2022-08-01T04:54:04.468Z,4.63
2022-08-01T04:56:35.220Z,4.80
2022-08-01T04:59:19.826Z,7.97
2022-08-01T05:01:52.698Z,6.05
2022-08-01T05:04:21.342Z,6.72
2022-08-01T05:06:52.275Z,6.00
2022-08-01T05:09:21.636Z,5.07
2022-08-01T05:11:59.380Z,6.07
2022-08-01T05:14:29.012Z,8.40
2022-08-01T05:16:59.560Z,7.50
2022-08-01T05:19:36.003Z,6.15
2022-08-01T05:22:26.792Z,5.13
2022-08-01T05:24:56.280Z,5.85
2022-08-01T05:27:25.760Z,4.95
2022-08-01T05:30:04.235Z,7.72
2022-08-01T05:32:33.808Z,8.10
2022-08-01T05:35:04.873Z,5.05
2022-08-01T05:37:41.337Z,6.22
2022-08-01T05:40:11.239Z,6.13
2022-08-01T05:42:39.676Z,8.85
2022-08-01T05:45:10.767Z,7.68
2022-08-01T05:47:43.012Z,9.25
2022-08-01T05:50:13.864Z,6.90
2022-08-01T05:52:46.245Z,10.38
2022-08-01T05:55:15.665Z,8.52
2022-08-01T05:57:55.258Z,6.47
2022-08-01T06:00:25.814Z,6.15
2022-08-01T06:02:56.427Z,6.63
2022-08-01T06:05:27.707Z,9.10
2022-08-01T06:07:59.266Z,9.02
2022-08-01T06:10:27.823Z,7.18
2022-08-01T06:12:57.343Z,10.35
2022-08-01T06:15:28.184Z,4.97
2022-08-01T06:17:57.982Z,5.25
2022-08-01T06:20:35.260Z,10.50
2022-08-01T06:23:24.433Z,6.32
2022-08-01T06:26:03.165Z,6.50
2022-08-01T06:28:39.722Z,6.05
2022-08-01T06:31:15.002Z,7.65
2022-08-01T06:33:43.429Z,6.57
2022-08-01T06:36:14.328Z,6.47
2022-08-01T06:38:44.374Z,4.82
2022-08-01T06:41:12.962Z,4.40
2022-08-01T06:43:43.581Z,6.32
2022-08-01T06:46:14.153Z,5.25
2022-08-01T06:48:44.194Z,5.22
2022-08-01T06:51:16.669Z,5.70
2022-08-01T06:53:46.486Z,5.88
2022-08-01T06:56:16.090Z,6.15
2022-08-01T06:58:44.629Z,6.65
2022-08-01T07:01:13.531Z,5.70
2022-08-01T07:03:53.796Z,8.48
2022-08-01T07:06:24.343Z,9.30
2022-08-01T07:09:09.478Z,6.05
2022-08-01T07:11:40.797Z,7.72
2022-08-01T07:14:13.312Z,6.93
2022-08-01T07:16:48.100Z,6.53
2022-08-01T07:19:17.821Z,7.75
2022-08-01T07:22:04.080Z,5.90
2022-08-01T07:24:37.066Z,6.82
2022-08-01T07:27:23.889Z,7.38
2022-08-01T07:29:54.173Z,6.15
2022-08-01T07:32:23.006Z,5.32
2022-08-01T07:34:54.294Z,5.10
2022-08-01T07:37:45.412Z,6.97
2022-08-01T07:40:13.659Z,7.72
2022-08-01T07:42:44.936Z,4.50
2022-08-01T07:45:17.939Z,5.55
2022-08-01T07:47:46.957Z,6.15
2022-08-01T07:50:23.352Z,3.92
2022-08-01T07:52:51.785Z,5.78
2022-08-01T07:55:22.277Z,4.95
2022-08-01T07:57:52.926Z,4.20
2022-08-01T08:00:21.691Z,7.05
2022-08-01T08:02:50.226Z,7.45
2022-08-01T08:05:51.368Z,5.10
2022-08-01T08:08:09.436Z,5.70
2022-08-01T08:10:39.772Z,4.18
2022-08-01T08:13:19.184Z,7.80
2022-08-01T08:15:52.891Z,3.60
2022-08-01T08:18:21.479Z,3.75
2022-08-01T08:20:50.480Z,2.88
2022-08-01T08:23:43.949Z,3.15
2022-08-01T08:26:14.244Z,3.65
2022-08-01T08:28:44.021Z,3.30
2022-08-01T08:31:25.038Z,2.78
2022-08-01T08:34:01.050Z,4.15
2022-08-01T08:36:31.297Z,7.40
2022-08-01T08:39:03.229Z,5.55
2022-08-01T08:41:37.706Z,3.78
2022-08-01T08:44:10.221Z,4.15
2022-08-01T08:46:45.154Z,4.00
2022-08-01T08:49:18.143Z,3.97
2022-08-01T08:51:50.944Z,6.13
2022-08-01T08:54:31.798Z,2.53
2022-08-01T08:57:03.207Z,3.13
2022-08-01T08:59:31.673Z,2.47
2022-08-01T09:02:01.061Z,6.82
2022-08-01T09:04:29.624Z,3.92
2022-08-01T09:06:57.968Z,4.90
2022-08-01T09:09:26.434Z,3.90
2022-08-01T09:11:58.108Z,2.00
2022-08-01T09:14:31.684Z,4.85
2022-08-01T09:17:07.838Z,3.30
2022-08-01T09:19:41.908Z,6.00
2022-08-01T09:22:12.997Z,3.83
2022-08-01T09:24:42.685Z,4.15
2022-08-01T09:27:25.104Z,4.03
2022-08-01T09:30:01.218Z,1.75
2022-08-01T09:32:36.085Z,3.22
2022-08-01T09:35:29.911Z,5.80
2022-08-01T09:38:19.234Z,2.03
2022-08-01T09:40:54.204Z,5.20
2022-08-01T09:43:24.555Z,2.55
2022-08-01T09:45:55.038Z,5.50
2022-08-01T09:48:27.885Z,4.32
2022-08-01T09:51:01.293Z,5.32
2022-08-01T09:53:51.307Z,3.35
2022-08-01T09:56:23.475Z,2.53
2022-08-01T09:58:59.435Z,3.78
2022-08-01T10:01:36.860Z,6.95
2022-08-01T10:04:12.593Z,3.00
2022-08-01T10:06:43.995Z,5.53
2022-08-01T10:09:14.288Z,6.40
2022-08-01T10:11:44.746Z,3.45
2022-08-01T10:14:17.795Z,4.15
2022-08-01T10:16:52.919Z,2.08
2022-08-01T10:19:25.704Z,2.05
2022-08-01T10:22:00.444Z,0.70
2022-08-01T10:24:33.611Z,2.00
2022-08-01T10:27:09.247Z,1.17
2022-08-01T10:30:05.257Z,1.38
2022-08-01T10:32:36.078Z,3.60
2022-08-01T10:35:14.950Z,1.65
2022-08-01T10:37:52.287Z,2.50
2022-08-01T10:40:31.278Z,0.82
2022-08-01T10:43:01.734Z,2.97
2022-08-01T10:45:31.279Z,2.10
2022-08-01T10:48:10.705Z,1.85
2022-08-01T10:50:48.224Z,3.03
2022-08-01T10:53:24.402Z,1.10
2022-08-01T10:56:03.209Z,1.73
2022-08-01T10:58:42.708Z,4.60
2022-08-01T11:01:25.493Z,1.00
2022-08-01T11:04:13.921Z,1.63
2022-08-01T11:07:05.882Z,2.28
2022-08-01T11:09:51.367Z,2.10
2022-08-01T11:12:24.488Z,1.77
2022-08-01T11:15:31.227Z,1.67
2022-08-01T11:18:06.341Z,0.90
2022-08-01T11:20:42.067Z,2.47
2022-08-01T11:23:23.291Z,1.10
2022-08-01T11:26:12.054Z,1.45
2022-08-01T11:29:05.031Z,2.10
2022-08-01T11:31:37.572Z,1.33
2022-08-01T11:34:07.458Z,1.73
2022-08-01T11:39:26.917Z,2.85
2022-08-01T11:41:56.105Z,1.00
2022-08-01T11:44:53.388Z,4.45
2022-08-01T11:50:35.080Z,2.25
2022-08-01T11:53:06.823Z,1.67
2022-08-01T11:55:37.135Z,2.25
2022-08-01T11:58:22.273Z,2.05
2022-08-01T12:00:58.221Z,2.30
2022-08-01T12:03:33.010Z,2.25
2022-08-01T12:06:02.565Z,2.65
2022-08-01T12:08:37.712Z,1.80
2022-08-01T12:11:07.464Z,2.40
2022-08-01T12:13:44.445Z,2.95
2022-08-01T12:16:15.486Z,2.95
2022-08-01T12:18:45.540Z,3.08
2022-08-01T12:21:15.680Z,2.25
2022-08-01T12:23:45.677Z,3.03
2022-08-01T12:26:28.349Z,2.35
2022-08-01T12:29:00.960Z,3.22
2022-08-01T12:31:35.332Z,2.92
2022-08-01T12:34:29.024Z,2.63
2022-08-01T12:36:58.654Z,2.65
2022-08-01T12:39:35.687Z,2.78
2022-08-01T12:42:12.207Z,3.90
2022-08-01T12:44:44.374Z,2.70
2022-08-01T12:47:16.157Z,3.60
2022-08-01T12:49:46.326Z,3.25
2022-08-01T12:52:15.545Z,2.13
2022-08-01T12:55:09.643Z,2.47
2022-08-01T12:57:41.747Z,2.13
2022-08-01T13:00:22.499Z,4.18
2022-08-01T13:02:53.696Z,2.33
2022-08-01T13:05:26.876Z,4.40
2022-08-01T13:07:56.261Z,1.00
2022-08-01T13:10:32.590Z,1.83
2022-08-01T13:13:02.552Z,1.17
2022-08-01T13:15:41.719Z,1.63
2022-08-01T13:18:30.800Z,1.00
2022-08-01T13:21:13.606Z,2.22
2022-08-01T13:24:02.974Z,0.95
2022-08-01T13:26:43.479Z,1.13
2022-08-01T13:29:15.069Z,0.82
2022-08-01T13:31:46.385Z,0.98
2022-08-01T13:34:16.945Z,2.50
2022-08-01T13:36:49.442Z,2.50
2022-08-01T13:39:42.955Z,2.30
2022-08-01T13:42:19.248Z,1.40
2022-08-01T13:44:48.427Z,1.67
2022-08-01T13:47:17.220Z,1.38
2022-08-01T13:49:46.096Z,0.77
2022-08-01T13:52:15.133Z,1.10
2022-08-01T13:54:43.778Z,1.50
2022-08-01T13:57:15.676Z,0.65
2022-08-01T13:59:44.288Z,1.00
2022-08-01T14:02:13.168Z,1.13
2022-08-01T14:04:42.068Z,3.13
2022-08-01T14:07:14.368Z,1.73
2022-08-01T14:09:45.012Z,0.98
2022-08-01T14:12:33.359Z,1.00
2022-08-01T14:15:02.037Z,3.03
2022-08-01T14:17:47.795Z,3.17
2022-08-01T14:20:21.035Z,3.90
2022-08-01T14:22:49.909Z,1.33
2022-08-01T14:25:23.968Z,1.17
2022-08-01T14:28:10.422Z,1.60
2022-08-01T14:30:39.735Z,1.10
2022-08-01T14:33:09.778Z,0.52
2022-08-01T14:36:01.500Z,0.60
2022-08-01T14:38:33.373Z,0.52
2022-08-01T14:41:04.970Z,0.40
2022-08-01T14:43:35.614Z,0.40
2022-08-01T14:46:05.835Z,0.75
2022-08-01T14:48:34.544Z,0.55
2022-08-01T14:51:04.293Z,0.60
2022-08-01T14:53:35.925Z,0.75
2022-08-01T14:56:04.995Z,1.10
2022-08-01T14:58:35.427Z,0.30
2022-08-01T15:01:07.028Z,1.35
2022-08-01T15:03:37.832Z,0.77
2022-08-01T15:06:10.808Z,0.35
2022-08-01T15:08:45.548Z,0.38
2022-08-01T15:11:15.753Z,0.40
2022-08-01T15:13:46.434Z,0.38
2022-08-01T15:16:14.860Z,0.47
2022-08-01T15:18:44.830Z,1.52
2022-08-01T15:21:39.837Z,0.30
2022-08-01T15:24:10.673Z,0.93
2022-08-01T15:26:46.305Z,0.20
2022-08-01T15:29:16.781Z,1.27
2022-08-01T15:31:45.857Z,0.35
2022-08-01T15:34:15.845Z,0.65
2022-08-01T15:36:46.567Z,2.08
2022-08-01T15:39:17.469Z,0.20
2022-08-01T15:41:46.518Z,1.27
2022-08-01T15:44:21.404Z,1.08
2022-08-01T15:46:50.005Z,1.40
2022-08-01T15:49:23.395Z,0.50
2022-08-01T15:51:58.044Z,0.73
2022-08-01T15:54:36.236Z,1.85
2022-08-01T15:57:06.509Z,1.42
2022-08-01T15:59:41.433Z,0.50
2022-08-01T16:02:12.818Z,1.85
2022-08-01T16:04:41.685Z,0.98
2022-08-01T16:07:10.306Z,1.63
2022-08-01T16:09:38.953Z,2.05
2022-08-01T16:12:08.949Z,2.83
2022-08-01T16:14:39.773Z,2.03
2022-08-01T16:17:08.460Z,2.22
2022-08-01T16:19:36.921Z,5.25
2022-08-01T16:22:06.003Z,0.40
2022-08-01T16:24:36.691Z,3.13
2022-08-01T16:27:08.338Z,2.20
2022-08-01T16:29:39.550Z,1.00
2022-08-01T16:32:25.077Z,1.35
2022-08-01T16:35:01.813Z,1.33
2022-08-01T16:37:30.408Z,1.42
2022-08-01T16:39:59.976Z,0.85
2022-08-01T16:42:29.777Z,1.27
2022-08-01T16:45:00.473Z,0.80
2022-08-01T16:47:30.318Z,1.58
2022-08-01T16:50:00.212Z,1.17
2022-08-01T16:52:29.889Z,1.02
2022-08-01T16:54:59.345Z,1.90
2022-08-01T16:57:33.381Z,0.90
2022-08-01T17:00:21.161Z,2.67
2022-08-01T17:02:51.253Z,1.42
2022-08-01T17:05:20.987Z,1.60
2022-08-01T17:07:49.503Z,2.55
2022-08-01T17:10:19.299Z,3.15
2022-08-01T17:12:47.944Z,4.20
2022-08-01T17:15:18.442Z,3.47
2022-08-01T17:17:49.059Z,4.18
2022-08-01T17:20:17.490Z,3.22
2022-08-01T17:22:46.213Z,3.38
2022-08-01T17:25:16.018Z,3.03
2022-08-01T17:27:45.314Z,4.30
2022-08-01T17:30:23.103Z,2.83
2022-08-01T17:32:52.568Z,4.90
2022-08-01T17:35:22.660Z,3.05
2022-08-01T17:37:52.810Z,3.40
2022-08-01T17:40:39.588Z,3.05
2022-08-01T17:43:10.576Z,4.05
2022-08-01T17:45:50.810Z,2.47
2022-08-01T17:48:20.581Z,5.45
2022-08-01T17:50:49.993Z,2.65
2022-08-01T17:53:21.102Z,4.65
2022-08-01T17:55:53.397Z,4.43
2022-08-01T17:58:49.208Z,7.60
2022-08-01T18:01:18.634Z,3.58
2022-08-01T18:03:50.454Z,3.20
2022-08-01T18:06:23.549Z,5.25
2022-08-01T18:08:56.136Z,6.93
2022-08-01T18:11:37.193Z,7.88
2022-08-01T18:14:14.525Z,6.53
2022-08-01T18:16:44.668Z,10.50
2022-08-01T18:19:13.350Z,7.20
2022-08-01T18:21:43.244Z,5.72
2022-08-01T18:24:13.025Z,5.68
2022-08-01T18:26:41.787Z,5.13
2022-08-01T18:29:11.317Z,4.65
2022-08-01T18:31:42.113Z,6.78
2022-08-01T18:34:14.430Z,5.63
2022-08-01T18:36:43.110Z,5.13
2022-08-01T18:39:13.414Z,10.52
2022-08-01T18:41:42.698Z,6.22
2022-08-01T18:44:12.782Z,7.30
2022-08-01T18:46:44.581Z,7.47
2022-08-01T18:49:14.681Z,4.78
2022-08-01T18:51:45.367Z,6.38
2022-08-01T18:54:14.915Z,9.40
2022-08-01T18:56:46.060Z,6.38
2022-08-01T18:59:15.827Z,4.95
2022-08-01T19:01:44.679Z,6.07
2022-08-01T19:04:15.077Z,5.43
2022-08-01T19:06:44.167Z,8.18
2022-08-01T19:09:20.571Z,4.35
2022-08-01T19:11:49.797Z,6.30
2022-08-01T19:14:18.689Z,4.10
2022-08-01T19:16:49.286Z,3.95
2022-08-01T19:19:27.567Z,5.65
2022-08-01T19:21:59.679Z,5.32
2022-08-01T19:24:30.836Z,4.10
2022-08-01T19:27:05.183Z,4.68
2022-08-01T19:29:40.572Z,5.25
2022-08-01T19:32:11.901Z,4.03
2022-08-01T19:34:49.918Z,6.28
2022-08-01T19:37:25.474Z,3.92
2022-08-01T19:39:56.700Z,7.20
2022-08-01T19:42:27.102Z,4.28
2022-08-01T19:44:55.893Z,3.42
2022-08-01T19:47:24.541Z,4.30
2022-08-01T19:49:54.932Z,2.55
2022-08-01T19:52:27.300Z,4.75
2022-08-01T19:54:57.596Z,5.28
2022-08-01T19:57:45.201Z,2.55
2022-08-01T20:00:27.862Z,3.70
2022-08-01T20:02:58.311Z,2.30
2022-08-01T20:05:28.752Z,3.22
2022-08-01T20:07:58.173Z,6.20
2022-08-01T20:10:27.759Z,2.20
2022-08-01T20:12:59.480Z,3.72
2022-08-01T20:15:29.562Z,3.60
2022-08-01T20:17:59.812Z,4.50
2022-08-01T20:20:38.250Z,4.50
2022-08-01T20:23:18.111Z,4.13
2022-08-01T20:25:51.496Z,4.05
2022-08-01T20:28:27.360Z,4.00
2022-08-01T20:31:03.505Z,2.70
2022-08-01T20:33:35.976Z,3.67
2022-08-01T20:36:12.014Z,2.83
2022-08-01T20:38:56.394Z,2.90
2022-08-01T20:41:25.927Z,3.38
2022-08-01T20:43:56.956Z,5.18
2022-08-01T20:46:29.636Z,1.92
2022-08-01T20:49:00.291Z,2.88
2022-08-01T20:51:31.866Z,3.28
2022-08-01T20:54:00.496Z,2.83
2022-08-01T20:56:38.440Z,3.35
2022-08-01T20:59:51.578Z,4.57
2022-08-01T21:02:08.815Z,1.75
2022-08-01T21:04:50.374Z,4.95
2022-08-01T21:07:27.714Z,6.88
2022-08-01T21:10:04.836Z,2.50
2022-08-01T21:12:45.082Z,3.25
2022-08-01T21:15:21.742Z,4.57
2022-08-01T21:18:02.136Z,3.45
2022-08-01T21:20:34.871Z,6.15
2022-08-01T21:23:21.928Z,4.22
2022-08-01T21:25:52.593Z,3.70
2022-08-01T21:28:24.304Z,3.55
2022-08-01T21:30:57.221Z,4.95
2022-08-01T21:33:28.273Z,4.80
2022-08-01T21:36:04.181Z,4.50
2022-08-01T21:38:40.634Z,5.30
2022-08-01T21:41:10.522Z,3.22
2022-08-01T21:43:40.762Z,5.40
2022-08-01T21:46:10.882Z,6.72
2022-08-01T21:48:41.160Z,5.35
2022-08-01T21:51:27.987Z,3.60
2022-08-01T21:54:16.074Z,4.88
2022-08-01T21:56:58.880Z,4.10
2022-08-01T21:59:34.187Z,3.03
2022-08-01T22:02:09.773Z,4.93
2022-08-01T22:04:44.700Z,5.13
2022-08-01T22:07:18.079Z,4.30
2022-08-01T22:09:51.311Z,5.30
2022-08-01T22:12:22.566Z,3.33
2022-08-01T22:14:55.484Z,4.55
2022-08-01T22:17:26.162Z,3.65
2022-08-01T22:19:55.670Z,4.78
2022-08-01T22:22:50.877Z,6.72
2022-08-01T22:25:15.838Z,8.10
2022-08-01T22:28:08.595Z,3.70
2022-08-01T22:30:37.277Z,3.10
2022-08-01T22:33:16.468Z,4.97
2022-08-01T22:35:50.337Z,6.13
2022-08-01T22:38:21.011Z,7.22
2022-08-01T22:40:55.261Z,5.10
2022-08-01T22:43:30.012Z,5.65
2022-08-01T22:46:11.460Z,4.22
2022-08-01T22:48:46.960Z,6.00
2022-08-01T22:51:28.293Z,8.82
2022-08-01T22:54:06.666Z,5.93
2022-08-01T22:56:44.604Z,5.47
2022-08-01T22:59:17.241Z,5.38
2022-08-01T23:01:50.551Z,4.38
2022-08-01T23:04:34.128Z,4.78
2022-08-01T23:07:07.815Z,3.42
2022-08-01T23:09:53.387Z,4.13
2022-08-01T23:12:28.860Z,4.25
2022-08-01T23:15:00.343Z,3.17
2022-08-01T23:17:31.960Z,5.63
2022-08-01T23:20:01.934Z,6.22
2022-08-01T23:22:33.641Z,4.95
2022-08-01T23:25:06.030Z,3.83
2022-08-01T23:28:04.164Z,2.92
2022-08-01T23:30:30.839Z,3.10
2022-08-01T23:32:59.824Z,1.70
2022-08-01T23:35:29.011Z,1.88
2022-08-01T23:38:02.874Z,1.83
2022-08-01T23:40:35.294Z,1.75
2022-08-01T23:43:16.601Z,2.05
2022-08-01T23:46:02.623Z,3.78
2022-08-01T23:48:33.772Z,2.75
2022-08-01T23:51:03.367Z,3.95
2022-08-01T23:53:32.159Z,5.95
2022-08-01T23:56:02.491Z,3.83
2022-08-01T23:58:33.967Z,4.03
